createdAt,value
2019-02-23T00:04:30.007Z,22.90
2019-02-23T00:11:27.415Z,18.13
2019-02-23T00:18:24.186Z,16.03
2019-02-23T00:25:21.334Z,14.00
2019-02-23T00:32:18.663Z,14.43
2019-02-23T00:39:03.991Z,15.53
2019-02-23T00:46:09.826Z,15.53
2019-02-23T00:53:06.898Z,13.97
2019-02-23T01:00:03.545Z,13.43
2019-02-23T01:07:01.634Z,14.37
2019-02-23T01:13:58.687Z,11.88
2019-02-23T01:20:55.603Z,13.03
2019-02-23T01:27:52.901Z,14.07
2019-02-23T01:34:48.647Z,15.37
2019-02-23T01:41:53.172Z,16.73
2019-02-23T01:48:50.483Z,14.17
2019-02-23T01:55:47.867Z,14.83
2019-02-23T02:02:44.903Z,15.03
2019-02-23T02:09:42.459Z,16.13
2019-02-23T02:16:39.951Z,16.00
2019-02-23T02:23:36.717Z,13.13
2019-02-23T02:30:33.956Z,17.47
2019-02-23T02:37:31.698Z,17.83
2019-02-23T02:44:29.241Z,14.60
2019-02-23T02:51:26.854Z,21.00
2019-02-23T02:58:24.019Z,16.43
2019-02-23T03:05:21.092Z,16.70
2019-02-23T03:12:17.820Z,18.20
2019-02-23T03:19:15.669Z,17.70
2019-02-23T03:26:12.839Z,19.10
2019-02-23T03:33:10.947Z,16.00
2019-02-23T03:40:08.641Z,19.20
2019-02-23T03:47:05.449Z,17.93
2019-02-23T03:54:02.378Z,20.23
2019-02-23T04:00:59.911Z,21.37
2019-02-23T04:07:57.051Z,21.03
2019-02-23T04:14:53.704Z,19.27
2019-02-23T04:21:50.888Z,19.83
2019-02-23T04:28:47.920Z,20.02
2019-02-23T04:35:46.592Z,21.47
2019-02-23T04:42:44.313Z,22.93
2019-02-23T04:49:41.324Z,20.17
2019-02-23T04:56:38.351Z,22.83
2019-02-23T05:03:35.785Z,20.40
2019-02-23T05:10:33.204Z,20.97
2019-02-23T05:17:30.809Z,20.93
2019-02-23T05:24:27.516Z,20.57
2019-02-23T05:31:25.003Z,25.70
2019-02-23T05:38:22.436Z,21.00
2019-02-23T05:45:19.331Z,22.17
2019-02-23T05:52:16.844Z,23.87
2019-02-23T05:59:14.053Z,19.77
2019-02-23T06:06:11.372Z,19.13
2019-02-23T06:13:08.340Z,22.30
2019-02-23T06:20:06.183Z,20.80
2019-02-23T06:27:03.668Z,23.63
2019-02-23T06:34:01.537Z,22.53
2019-02-23T06:40:58.472Z,25.07
2019-02-23T06:47:55.826Z,24.13
2019-02-23T06:54:53.392Z,23.47
2019-02-23T07:01:50.043Z,25.80
2019-02-23T07:08:50.519Z,21.53
2019-02-23T07:15:47.258Z,24.43
2019-02-23T07:22:44.661Z,21.37
2019-02-23T07:29:41.816Z,20.97
2019-02-23T07:36:39.504Z,20.00
2019-02-23T07:43:37.500Z,16.73
2019-02-23T07:50:34.906Z,17.60
2019-02-23T07:57:31.984Z,13.73
2019-02-23T08:04:29.403Z,16.30
2019-02-23T08:11:26.183Z,15.00
2019-02-23T08:18:23.410Z,13.13
2019-02-23T08:25:20.899Z,14.90
2019-02-23T08:32:17.963Z,13.25
2019-02-23T08:39:14.631Z,12.87
2019-02-23T08:46:12.232Z,13.65
2019-02-23T08:53:09.716Z,13.85
2019-02-23T09:00:06.794Z,12.65
2019-02-23T09:07:05.456Z,14.73
2019-02-23T09:14:02.604Z,13.30
2019-02-23T09:20:59.388Z,12.70
2019-02-23T09:27:56.758Z,16.70
2019-02-23T09:34:54.388Z,15.17
2019-02-23T09:41:51.347Z,11.63
2019-02-23T09:48:48.467Z,11.48
2019-02-23T09:55:45.963Z,10.60
2019-02-23T10:02:42.931Z,13.35
2019-02-23T10:09:39.890Z,10.45
2019-02-23T10:16:36.664Z,10.45
2019-02-23T10:23:34.165Z,10.18
2019-02-23T10:30:31.879Z,9.73
2019-02-23T10:37:29.351Z,8.80
2019-02-23T10:44:26.015Z,12.90
2019-02-23T10:51:22.659Z,7.78
2019-02-23T10:58:20.228Z,8.33
2019-02-23T11:05:18.421Z,7.43
2019-02-23T11:12:15.819Z,8.60
2019-02-23T11:19:12.792Z,6.67
2019-02-23T11:26:09.942Z,7.27
2019-02-23T11:32:54.806Z,7.43
2019-02-23T11:39:39.829Z,8.47
2019-02-23T11:46:37.905Z,7.37
2019-02-23T11:53:35.241Z,6.70
2019-02-23T12:00:32.015Z,7.40
2019-02-23T12:07:29.288Z,5.77
2019-02-23T12:14:26.383Z,6.27
2019-02-23T12:21:23.820Z,6.80
2019-02-23T12:28:21.255Z,4.97
2019-02-23T12:35:18.433Z,7.00
2019-02-23T12:42:15.443Z,5.87
2019-02-23T12:49:13.006Z,6.20
2019-02-23T12:56:10.239Z,5.30
2019-02-23T13:03:06.916Z,3.87
2019-02-23T13:10:04.006Z,4.20
2019-02-23T13:17:01.316Z,3.20
2019-02-23T13:23:58.808Z,4.93
2019-02-23T13:30:56.322Z,4.37
2019-02-23T13:37:53.206Z,4.60
2019-02-23T13:44:50.399Z,4.20
2019-02-23T13:51:48.662Z,5.77
2019-02-23T13:58:47.688Z,7.70
2019-02-23T14:05:44.303Z,4.03
2019-02-23T14:12:34.895Z,3.60
2019-02-23T14:19:34.783Z,6.45
2019-02-23T14:26:34.332Z,5.33
2019-02-23T14:33:54.015Z,4.20
2019-02-23T14:41:17.569Z,5.63
2019-02-23T14:48:14.481Z,4.30
2019-02-23T14:55:12.222Z,3.73
2019-02-23T15:02:08.999Z,5.63
2019-02-23T15:09:05.736Z,3.95
2019-02-23T15:16:04.536Z,3.80
2019-02-23T15:23:01.463Z,3.27
2019-02-23T15:29:58.967Z,3.40
2019-02-23T15:37:00.690Z,3.40
2019-02-23T15:43:54.705Z,3.93
2019-02-23T15:50:52.155Z,6.63
2019-02-23T15:57:49.770Z,3.90
2019-02-23T16:04:47.197Z,4.63
2019-02-23T16:11:32.501Z,4.03
2019-02-23T16:18:17.603Z,7.50
2019-02-23T16:25:15.231Z,7.10
2019-02-23T16:32:13.738Z,4.63
2019-02-23T16:39:11.298Z,4.13
2019-02-23T16:46:09.770Z,5.43
2019-02-23T16:52:56.102Z,6.80
2019-02-23T16:59:44.491Z,5.13
2019-02-23T17:06:41.212Z,11.60
2019-02-23T17:13:37.897Z,5.87
2019-02-23T17:20:35.315Z,5.40
2019-02-23T17:27:36.258Z,4.50
2019-02-23T17:34:32.015Z,5.07
2019-02-23T17:41:28.707Z,4.90
2019-02-23T17:48:26.207Z,4.03
2019-02-23T17:55:23.329Z,7.73
2019-02-23T18:02:20.760Z,4.40
2019-02-23T18:09:17.468Z,3.30
2019-02-23T18:16:14.239Z,5.63
2019-02-23T18:23:11.707Z,3.33
2019-02-23T18:30:14.080Z,4.73
2019-02-23T18:37:10.727Z,3.77
2019-02-23T18:44:07.499Z,2.73
2019-02-23T18:51:06.201Z,3.63
2019-02-23T18:58:03.537Z,2.73
2019-02-23T19:04:48.479Z,4.47
2019-02-23T19:11:33.387Z,4.53
2019-02-23T19:18:30.371Z,3.90
2019-02-23T19:25:27.403Z,5.15
2019-02-23T19:32:25.135Z,5.27
2019-02-23T19:39:22.363Z,6.40
2019-02-23T19:46:19.715Z,6.43
2019-02-23T19:53:17.315Z,6.43
2019-02-23T20:00:15.792Z,6.03
2019-02-23T20:07:13.259Z,5.13
2019-02-23T20:13:58.183Z,4.80
2019-02-23T20:20:43.051Z,6.37
2019-02-23T20:27:28.030Z,9.13
2019-02-23T20:34:33.292Z,6.00
2019-02-23T20:41:30.421Z,10.80
2019-02-23T20:48:16.352Z,5.70
2019-02-23T20:55:01.461Z,5.60
2019-02-23T21:02:00.107Z,5.17
2019-02-23T21:08:57.555Z,4.50
2019-02-23T21:15:54.531Z,3.67
2019-02-23T21:22:52.033Z,3.47
2019-02-23T21:29:50.480Z,3.60
2019-02-23T21:36:48.041Z,2.47
2019-02-23T21:43:32.997Z,4.67
2019-02-23T21:50:18.076Z,3.50
2019-02-23T21:57:03.071Z,2.73
2019-02-23T22:03:48.031Z,3.17
2019-02-23T22:10:45.519Z,2.47
2019-02-23T22:17:42.512Z,3.03
2019-02-23T22:24:39.103Z,2.53
2019-02-23T22:31:36.253Z,3.77
2019-02-23T22:38:21.297Z,3.53
2019-02-23T22:45:41.711Z,2.27
2019-02-23T22:52:30.647Z,3.00
2019-02-23T22:59:15.881Z,3.60
2019-02-23T23:06:01.896Z,2.40
2019-02-23T23:12:46.795Z,2.90
2019-02-23T23:19:33.564Z,2.50
2019-02-23T23:26:18.987Z,2.80
2019-02-23T23:33:05.374Z,2.03
2019-02-23T23:40:03.428Z,4.23
2019-02-23T23:46:49.687Z,2.47
2019-02-23T23:53:49.616Z,2.80
